sensor_id;sensor_type;location;lat;lon;timestamp;temperature;humidity
69393;SHT31;56582;44.624;20.378;2023-07-31T00:00:07;20.31;95.79
69393;SHT31;56582;44.624;20.378;2023-07-31T00:02:34;20.30;95.60
69393;SHT31;56582;44.624;20.378;2023-07-31T00:05:00;20.24;96.03
69393;SHT31;56582;44.624;20.378;2023-07-31T00:07:25;20.28;95.76
69393;SHT31;56582;44.624;20.378;2023-07-31T00:09:51;20.21;95.93
69393;SHT31;56582;44.624;20.378;2023-07-31T00:12:16;20.25;95.92
69393;SHT31;56582;44.624;20.378;2023-07-31T00:14:42;20.13;96.22
69393;SHT31;56582;44.624;20.378;2023-07-31T00:17:08;20.25;96.12
69393;SHT31;56582;44.624;20.378;2023-07-31T00:19:33;20.31;95.42
69393;SHT31;56582;44.624;20.378;2023-07-31T00:21:59;20.30;95.79
69393;SHT31;56582;44.624;20.378;2023-07-31T00:24:24;20.24;95.56
69393;SHT31;56582;44.624;20.378;2023-07-31T00:26:50;20.21;95.63
69393;SHT31;56582;44.624;20.378;2023-07-31T00:29:15;20.25;95.67
69393;SHT31;56582;44.624;20.378;2023-07-31T00:31:41;20.14;95.99
69393;SHT31;56582;44.624;20.378;2023-07-31T00:34:07;20.20;96.04
69393;SHT31;56582;44.624;20.378;2023-07-31T00:36:32;20.18;95.93
69393;SHT31;56582;44.624;20.378;2023-07-31T00:38:58;20.03;96.62
69393;SHT31;56582;44.624;20.378;2023-07-31T00:41:23;20.18;96.44
69393;SHT31;56582;44.624;20.378;2023-07-31T00:43:48;19.98;96.81
69393;SHT31;56582;44.624;20.378;2023-07-31T00:46:14;20.11;96.70
69393;SHT31;56582;44.624;20.378;2023-07-31T00:48:40;20.11;96.50
69393;SHT31;56582;44.624;20.378;2023-07-31T00:51:06;20.07;96.63
69393;SHT31;56582;44.624;20.378;2023-07-31T00:53:31;20.17;96.34
69393;SHT31;56582;44.624;20.378;2023-07-31T00:55:57;20.14;96.46
69393;SHT31;56582;44.624;20.378;2023-07-31T00:58:23;20.24;96.25
69393;SHT31;56582;44.624;20.378;2023-07-31T01:00:49;20.31;95.83
69393;SHT31;56582;44.624;20.378;2023-07-31T01:03:15;20.30;95.83
69393;SHT31;56582;44.624;20.378;2023-07-31T01:08:49;20.27;95.74
69393;SHT31;56582;44.624;20.378;2023-07-31T01:11:27;20.28;95.50
69393;SHT31;56582;44.624;20.378;2023-07-31T01:13:55;20.13;95.91
69393;SHT31;56582;44.624;20.378;2023-07-31T01:16:20;20.17;95.88
69393;SHT31;56582;44.624;20.378;2023-07-31T01:18:46;20.09;95.88
69393;SHT31;56582;44.624;20.378;2023-07-31T01:26:30;20.24;95.59
69393;SHT31;56582;44.624;20.378;2023-07-31T01:31:33;20.23;95.40
69393;SHT31;56582;44.624;20.378;2023-07-31T01:34:01;20.32;95.10
69393;SHT31;56582;44.624;20.378;2023-07-31T01:36:28;20.23;95.04
69393;SHT31;56582;44.624;20.378;2023-07-31T01:39:00;20.30;95.12
69393;SHT31;56582;44.624;20.378;2023-07-31T01:41:27;20.17;95.26
69393;SHT31;56582;44.624;20.378;2023-07-31T01:43:52;20.14;95.39
69393;SHT31;56582;44.624;20.378;2023-07-31T01:46:18;20.00;95.91
69393;SHT31;56582;44.624;20.378;2023-07-31T01:48:43;20.00;96.22
69393;SHT31;56582;44.624;20.378;2023-07-31T01:51:09;20.03;96.11
69393;SHT31;56582;44.624;20.378;2023-07-31T01:53:34;19.92;96.46
69393;SHT31;56582;44.624;20.378;2023-07-31T01:55:59;19.98;96.51
69393;SHT31;56582;44.624;20.378;2023-07-31T01:58:25;20.09;96.05
69393;SHT31;56582;44.624;20.378;2023-07-31T02:00:50;20.07;96.04
69393;SHT31;56582;44.624;20.378;2023-07-31T02:03:16;20.18;95.71
69393;SHT31;56582;44.624;20.378;2023-07-31T02:05:45;20.27;95.35
69393;SHT31;56582;44.624;20.378;2023-07-31T02:08:11;20.30;95.00
69393;SHT31;56582;44.624;20.378;2023-07-31T02:10:36;20.32;94.84
69393;SHT31;56582;44.624;20.378;2023-07-31T02:13:02;20.21;95.14
69393;SHT31;56582;44.624;20.378;2023-07-31T02:15:30;20.28;95.00
69393;SHT31;56582;44.624;20.378;2023-07-31T02:17:55;20.30;94.85
69393;SHT31;56582;44.624;20.378;2023-07-31T02:20:24;20.34;94.69
69393;SHT31;56582;44.624;20.378;2023-07-31T02:22:50;20.49;94.53
69393;SHT31;56582;44.624;20.378;2023-07-31T02:25:15;20.48;94.27
69393;SHT31;56582;44.624;20.378;2023-07-31T02:27:41;20.44;94.28
69393;SHT31;56582;44.624;20.378;2023-07-31T02:30:07;20.30;94.65
69393;SHT31;56582;44.624;20.378;2023-07-31T02:32:32;20.38;94.56
69393;SHT31;56582;44.624;20.378;2023-07-31T02:34:58;20.41;94.47
69393;SHT31;56582;44.624;20.378;2023-07-31T02:37:23;20.48;94.29
69393;SHT31;56582;44.624;20.378;2023-07-31T02:39:49;20.45;94.26
69393;SHT31;56582;44.624;20.378;2023-07-31T02:42:14;20.51;94.17
69393;SHT31;56582;44.624;20.378;2023-07-31T02:44:40;20.37;94.39
69393;SHT31;56582;44.624;20.378;2023-07-31T02:47:05;20.49;94.30
69393;SHT31;56582;44.624;20.378;2023-07-31T02:49:31;20.58;94.15
69393;SHT31;56582;44.624;20.378;2023-07-31T02:51:57;20.65;96.03
69393;SHT31;56582;44.624;20.378;2023-07-31T02:54:22;20.61;94.71
69393;SHT31;56582;44.624;20.378;2023-07-31T02:56:48;20.67;94.34
69393;SHT31;56582;44.624;20.378;2023-07-31T02:59:13;20.71;94.45
69393;SHT31;56582;44.624;20.378;2023-07-31T03:01:39;20.68;94.10
69393;SHT31;56582;44.624;20.378;2023-07-31T03:04:04;20.67;93.96
69393;SHT31;56582;44.624;20.378;2023-07-31T03:06:30;20.71;93.91
69393;SHT31;56582;44.624;20.378;2023-07-31T03:08:55;20.76;93.83
69393;SHT31;56582;44.624;20.378;2023-07-31T03:11:21;20.61;93.88
69393;SHT31;56582;44.624;20.378;2023-07-31T03:13:46;20.67;94.38
69393;SHT31;56582;44.624;20.378;2023-07-31T03:16:12;20.67;94.33
69393;SHT31;56582;44.624;20.378;2023-07-31T03:18:37;20.65;94.16
69393;SHT31;56582;44.624;20.378;2023-07-31T03:21:04;20.61;93.74
69393;SHT31;56582;44.624;20.378;2023-07-31T03:23:29;20.55;93.76
69393;SHT31;56582;44.624;20.378;2023-07-31T03:26:05;20.38;94.52
69393;SHT31;56582;44.624;20.378;2023-07-31T03:28:30;20.24;94.96
69393;SHT31;56582;44.624;20.378;2023-07-31T03:30:56;20.31;94.93
69393;SHT31;56582;44.624;20.378;2023-07-31T03:33:21;20.24;95.31
69393;SHT31;56582;44.624;20.378;2023-07-31T03:35:47;20.32;95.19
69393;SHT31;56582;44.624;20.378;2023-07-31T03:38:12;20.11;95.51
69393;SHT31;56582;44.624;20.378;2023-07-31T03:40:38;19.94;96.30
69393;SHT31;56582;44.624;20.378;2023-07-31T03:43:04;19.84;96.70
69393;SHT31;56582;44.624;20.378;2023-07-31T03:45:29;19.90;96.47
69393;SHT31;56582;44.624;20.378;2023-07-31T03:47:55;19.92;96.23
69393;SHT31;56582;44.624;20.378;2023-07-31T03:50:20;19.80;96.60
69393;SHT31;56582;44.624;20.378;2023-07-31T03:52:46;19.86;96.36
69393;SHT31;56582;44.624;20.378;2023-07-31T03:55:12;19.83;96.39
69393;SHT31;56582;44.624;20.378;2023-07-31T03:57:38;19.79;96.52
69393;SHT31;56582;44.624;20.378;2023-07-31T04:00:03;19.73;96.69
69393;SHT31;56582;44.624;20.378;2023-07-31T04:02:29;19.63;97.21
69393;SHT31;56582;44.624;20.378;2023-07-31T04:05:01;19.70;97.04
69393;SHT31;56582;44.624;20.378;2023-07-31T04:07:27;19.73;97.13
69393;SHT31;56582;44.624;20.378;2023-07-31T04:09:52;19.86;97.00
69393;SHT31;56582;44.624;20.378;2023-07-31T04:12:18;19.94;96.46
69393;SHT31;56582;44.624;20.378;2023-07-31T04:14:43;19.90;96.56
69393;SHT31;56582;44.624;20.378;2023-07-31T04:17:09;20.00;96.83
69393;SHT31;56582;44.624;20.378;2023-07-31T04:19:34;19.82;96.89
69393;SHT31;56582;44.624;20.378;2023-07-31T04:21:59;19.89;96.73
69393;SHT31;56582;44.624;20.378;2023-07-31T04:24:25;19.97;96.56
69393;SHT31;56582;44.624;20.378;2023-07-31T04:26:51;19.94;96.17
69393;SHT31;56582;44.624;20.378;2023-07-31T04:29:16;19.90;96.73
69393;SHT31;56582;44.624;20.378;2023-07-31T04:31:42;20.06;96.28
69393;SHT31;56582;44.624;20.378;2023-07-31T04:34:07;20.06;96.53
69393;SHT31;56582;44.624;20.378;2023-07-31T04:36:33;19.98;96.27
69393;SHT31;56582;44.624;20.378;2023-07-31T04:38:59;19.98;96.44
69393;SHT31;56582;44.624;20.378;2023-07-31T04:41:25;19.97;96.46
69393;SHT31;56582;44.624;20.378;2023-07-31T04:43:50;20.06;96.29
69393;SHT31;56582;44.624;20.378;2023-07-31T04:46:15;19.98;96.26
69393;SHT31;56582;44.624;20.378;2023-07-31T04:48:41;19.98;96.45
69393;SHT31;56582;44.624;20.378;2023-07-31T04:51:07;20.00;96.63
69393;SHT31;56582;44.624;20.378;2023-07-31T04:53:32;20.06;96.24
69393;SHT31;56582;44.624;20.378;2023-07-31T04:55:58;20.09;96.09
69393;SHT31;56582;44.624;20.378;2023-07-31T04:58:23;20.14;96.12
69393;SHT31;56582;44.624;20.378;2023-07-31T05:00:49;20.10;95.87
69393;SHT31;56582;44.624;20.378;2023-07-31T05:03:14;20.06;96.06
69393;SHT31;56582;44.624;20.378;2023-07-31T05:05:40;20.11;96.15
69393;SHT31;56582;44.624;20.378;2023-07-31T05:08:05;20.18;95.62
69393;SHT31;56582;44.624;20.378;2023-07-31T05:10:30;20.31;95.30
69393;SHT31;56582;44.624;20.378;2023-07-31T05:12:56;20.16;96.06
69393;SHT31;56582;44.624;20.378;2023-07-31T05:15:22;20.11;96.08
69393;SHT31;56582;44.624;20.378;2023-07-31T05:17:47;20.14;96.30
69393;SHT31;56582;44.624;20.378;2023-07-31T05:20:12;20.11;95.90
69393;SHT31;56582;44.624;20.378;2023-07-31T05:22:38;20.00;95.93
69393;SHT31;56582;44.624;20.378;2023-07-31T05:25:04;20.06;96.07
69393;SHT31;56582;44.624;20.378;2023-07-31T05:27:29;20.27;95.79
69393;SHT31;56582;44.624;20.378;2023-07-31T05:29:55;20.25;95.77
69393;SHT31;56582;44.624;20.378;2023-07-31T05:32:20;20.31;95.75
69393;SHT31;56582;44.624;20.378;2023-07-31T05:34:46;20.32;95.89
69393;SHT31;56582;44.624;20.378;2023-07-31T05:37:11;20.38;95.68
69393;SHT31;56582;44.624;20.378;2023-07-31T05:39:37;20.42;95.35
69393;SHT31;56582;44.624;20.378;2023-07-31T05:42:02;20.55;95.25
69393;SHT31;56582;44.624;20.378;2023-07-31T05:44:28;20.69;95.24
69393;SHT31;56582;44.624;20.378;2023-07-31T05:46:53;20.72;94.62
69393;SHT31;56582;44.624;20.378;2023-07-31T05:49:19;20.78;94.67
69393;SHT31;56582;44.624;20.378;2023-07-31T05:51:44;20.65;94.76
69393;SHT31;56582;44.624;20.378;2023-07-31T05:54:10;20.38;94.93
69393;SHT31;56582;44.624;20.378;2023-07-31T05:56:35;20.47;95.00
69393;SHT31;56582;44.624;20.378;2023-07-31T05:59:00;20.51;94.69
69393;SHT31;56582;44.624;20.378;2023-07-31T06:01:26;20.67;94.22
69393;SHT31;56582;44.624;20.378;2023-07-31T06:03:51;20.56;94.62
69393;SHT31;56582;44.624;20.378;2023-07-31T06:06:17;20.81;94.37
69393;SHT31;56582;44.624;20.378;2023-07-31T06:08:42;20.75;93.10
69393;SHT31;56582;44.624;20.378;2023-07-31T06:11:08;20.62;93.52
69393;SHT31;56582;44.624;20.378;2023-07-31T06:13:34;20.68;93.99
69393;SHT31;56582;44.624;20.378;2023-07-31T06:16:00;20.65;93.89
69393;SHT31;56582;44.624;20.378;2023-07-31T06:18:28;20.88;93.84
69393;SHT31;56582;44.624;20.378;2023-07-31T06:20:53;20.99;93.22
69393;SHT31;56582;44.624;20.378;2023-07-31T06:23:19;21.18;93.13
69393;SHT31;56582;44.624;20.378;2023-07-31T06:25:45;21.06;92.23
69393;SHT31;56582;44.624;20.378;2023-07-31T06:28:11;21.18;91.56
69393;SHT31;56582;44.624;20.378;2023-07-31T06:30:37;21.22;91.49
69393;SHT31;56582;44.624;20.378;2023-07-31T06:33:02;21.31;90.60
69393;SHT31;56582;44.624;20.378;2023-07-31T06:35:28;21.36;90.72
69393;SHT31;56582;44.624;20.378;2023-07-31T06:37:53;21.34;90.77
69393;SHT31;56582;44.624;20.378;2023-07-31T06:40:19;21.37;90.58
69393;SHT31;56582;44.624;20.378;2023-07-31T06:42:44;21.34;90.85
69393;SHT31;56582;44.624;20.378;2023-07-31T06:45:10;21.40;90.07
69393;SHT31;56582;44.624;20.378;2023-07-31T06:47:35;21.39;90.39
69393;SHT31;56582;44.624;20.378;2023-07-31T06:50:01;21.43;90.67
69393;SHT31;56582;44.624;20.378;2023-07-31T06:52:26;21.48;90.12
69393;SHT31;56582;44.624;20.378;2023-07-31T06:55:03;21.61;89.50
69393;SHT31;56582;44.624;20.378;2023-07-31T06:57:29;21.79;89.59
69393;SHT31;56582;44.624;20.378;2023-07-31T06:59:54;22.06;88.37
69393;SHT31;56582;44.624;20.378;2023-07-31T07:02:20;22.25;87.40
69393;SHT31;56582;44.624;20.378;2023-07-31T07:04:45;22.43;86.68
69393;SHT31;56582;44.624;20.378;2023-07-31T07:07:11;22.20;85.31
69393;SHT31;56582;44.624;20.378;2023-07-31T07:09:36;21.75;87.16
69393;SHT31;56582;44.624;20.378;2023-07-31T07:12:02;21.84;87.04
69393;SHT31;56582;44.624;20.378;2023-07-31T07:14:27;22.22;86.93
69393;SHT31;56582;44.624;20.378;2023-07-31T07:16:53;22.35;86.94
69393;SHT31;56582;44.624;20.378;2023-07-31T07:19:18;22.40;86.32
69393;SHT31;56582;44.624;20.378;2023-07-31T07:21:44;22.88;85.33
69393;SHT31;56582;44.624;20.378;2023-07-31T07:24:09;23.16;84.19
69393;SHT31;56582;44.624;20.378;2023-07-31T07:26:35;23.00;82.94
69393;SHT31;56582;44.624;20.378;2023-07-31T07:29:00;23.15;83.81
69393;SHT31;56582;44.624;20.378;2023-07-31T07:31:27;23.49;84.42
69393;SHT31;56582;44.624;20.378;2023-07-31T07:33:53;23.31;82.29
69393;SHT31;56582;44.624;20.378;2023-07-31T07:36:18;23.32;80.72
69393;SHT31;56582;44.624;20.378;2023-07-31T07:38:44;23.28;80.63
69393;SHT31;56582;44.624;20.378;2023-07-31T07:41:09;23.31;80.72
69393;SHT31;56582;44.624;20.378;2023-07-31T07:43:35;23.21;81.73
69393;SHT31;56582;44.624;20.378;2023-07-31T07:46:00;23.14;82.34
69393;SHT31;56582;44.624;20.378;2023-07-31T07:48:26;22.94;81.68
69393;SHT31;56582;44.624;20.378;2023-07-31T07:50:51;23.24;80.94
69393;SHT31;56582;44.624;20.378;2023-07-31T07:53:16;23.29;82.40
69393;SHT31;56582;44.624;20.378;2023-07-31T07:55:42;23.32;80.13
69393;SHT31;56582;44.624;20.378;2023-07-31T07:58:08;23.21;80.97
69393;SHT31;56582;44.624;20.378;2023-07-31T08:00:33;23.42;80.67
69393;SHT31;56582;44.624;20.378;2023-07-31T08:02:59;23.45;79.56
69393;SHT31;56582;44.624;20.378;2023-07-31T08:05:24;23.45;80.07
69393;SHT31;56582;44.624;20.378;2023-07-31T08:07:50;23.42;80.91
69393;SHT31;56582;44.624;20.378;2023-07-31T08:10:16;23.53;80.52
69393;SHT31;56582;44.624;20.378;2023-07-31T08:12:41;23.51;80.44
69393;SHT31;56582;44.624;20.378;2023-07-31T08:15:07;23.52;79.56
69393;SHT31;56582;44.624;20.378;2023-07-31T08:17:33;23.53;80.21
69393;SHT31;56582;44.624;20.378;2023-07-31T08:19:58;23.41;80.48
69393;SHT31;56582;44.624;20.378;2023-07-31T08:22:24;23.46;80.62
69393;SHT31;56582;44.624;20.378;2023-07-31T08:24:50;23.70;80.79
69393;SHT31;56582;44.624;20.378;2023-07-31T08:27:16;24.01;78.98
69393;SHT31;56582;44.624;20.378;2023-07-31T08:29:42;24.28;78.98
69393;SHT31;56582;44.624;20.378;2023-07-31T08:32:07;24.47;78.44
69393;SHT31;56582;44.624;20.378;2023-07-31T08:34:33;24.37;78.44
69393;SHT31;56582;44.624;20.378;2023-07-31T08:36:58;24.45;78.51
69393;SHT31;56582;44.624;20.378;2023-07-31T08:39:24;24.40;78.31
69393;SHT31;56582;44.624;20.378;2023-07-31T08:41:50;24.07;78.98
69393;SHT31;56582;44.624;20.378;2023-07-31T08:44:17;24.32;78.95
69393;SHT31;56582;44.624;20.378;2023-07-31T08:46:43;24.20;77.78
69393;SHT31;56582;44.624;20.378;2023-07-31T08:49:09;24.31;76.03
69393;SHT31;56582;44.624;20.378;2023-07-31T08:51:36;24.47;76.86
69393;SHT31;56582;44.624;20.378;2023-07-31T08:54:02;24.52;75.59
69393;SHT31;56582;44.624;20.378;2023-07-31T08:56:30;24.58;76.49
69393;SHT31;56582;44.624;20.378;2023-07-31T08:58:56;24.71;75.68
69393;SHT31;56582;44.624;20.378;2023-07-31T09:01:23;24.82;73.39
69393;SHT31;56582;44.624;20.378;2023-07-31T09:03:51;25.09;73.35
69393;SHT31;56582;44.624;20.378;2023-07-31T09:06:18;25.02;72.82
69393;SHT31;56582;44.624;20.378;2023-07-31T09:08:44;24.72;73.60
69393;SHT31;56582;44.624;20.378;2023-07-31T09:11:09;24.62;73.25
69393;SHT31;56582;44.624;20.378;2023-07-31T09:13:35;24.68;73.85
69393;SHT31;56582;44.624;20.378;2023-07-31T09:16:02;24.96;73.48
69393;SHT31;56582;44.624;20.378;2023-07-31T09:18:27;24.88;72.42
69393;SHT31;56582;44.624;20.378;2023-07-31T09:21:05;24.72;71.94
69393;SHT31;56582;44.624;20.378;2023-07-31T09:23:45;24.79;71.87
69393;SHT31;56582;44.624;20.378;2023-07-31T09:26:11;25.02;72.07
69393;SHT31;56582;44.624;20.378;2023-07-31T09:28:53;25.13;68.57
69393;SHT31;56582;44.624;20.378;2023-07-31T09:31:31;25.51;70.20
69393;SHT31;56582;44.624;20.378;2023-07-31T09:33:57;25.74;71.03
69393;SHT31;56582;44.624;20.378;2023-07-31T09:36:22;25.60;73.08
69393;SHT31;56582;44.624;20.378;2023-07-31T09:38:48;25.16;69.21
69393;SHT31;56582;44.624;20.378;2023-07-31T09:41:13;25.27;71.45
69393;SHT31;56582;44.624;20.378;2023-07-31T09:43:39;25.15;70.84
69393;SHT31;56582;44.624;20.378;2023-07-31T09:46:13;25.00;67.81
69393;SHT31;56582;44.624;20.378;2023-07-31T09:48:39;25.22;66.60
69393;SHT31;56582;44.624;20.378;2023-07-31T09:51:04;25.48;67.60
69393;SHT31;56582;44.624;20.378;2023-07-31T09:53:30;25.61;65.52
69393;SHT31;56582;44.624;20.378;2023-07-31T09:55:58;25.68;66.32
69393;SHT31;56582;44.624;20.378;2023-07-31T09:58:27;25.85;66.45
69393;SHT31;56582;44.624;20.378;2023-07-31T10:00:54;25.86;64.32
69393;SHT31;56582;44.624;20.378;2023-07-31T10:03:20;25.82;63.92
69393;SHT31;56582;44.624;20.378;2023-07-31T10:05:50;25.85;62.72
69393;SHT31;56582;44.624;20.378;2023-07-31T10:08:20;25.96;64.07
69393;SHT31;56582;44.624;20.378;2023-07-31T10:10:46;26.04;61.25
69393;SHT31;56582;44.624;20.378;2023-07-31T10:13:12;26.05;63.13
69393;SHT31;56582;44.624;20.378;2023-07-31T10:15:39;26.32;63.76
69393;SHT31;56582;44.624;20.378;2023-07-31T10:18:06;25.67;64.66
69393;SHT31;56582;44.624;20.378;2023-07-31T10:20:32;25.80;63.47
69393;SHT31;56582;44.624;20.378;2023-07-31T10:22:58;25.78;61.80
69393;SHT31;56582;44.624;20.378;2023-07-31T10:25:27;25.82;63.87
69393;SHT31;56582;44.624;20.378;2023-07-31T10:27:52;25.86;62.00
69393;SHT31;56582;44.624;20.378;2023-07-31T10:30:20;26.22;62.58
69393;SHT31;56582;44.624;20.378;2023-07-31T10:32:47;25.77;62.03
69393;SHT31;56582;44.624;20.378;2023-07-31T10:35:17;25.20;62.81
69393;SHT31;56582;44.624;20.378;2023-07-31T10:37:43;25.46;62.50
69393;SHT31;56582;44.624;20.378;2023-07-31T10:40:16;25.58;62.13
69393;SHT31;56582;44.624;20.378;2023-07-31T10:42:46;25.65;61.02
69393;SHT31;56582;44.624;20.378;2023-07-31T10:45:13;25.91;60.33
69393;SHT31;56582;44.624;20.378;2023-07-31T10:47:43;25.95;60.83
69393;SHT31;56582;44.624;20.378;2023-07-31T10:50:19;26.13;61.05
69393;SHT31;56582;44.624;20.378;2023-07-31T10:52:55;25.96;58.19
69393;SHT31;56582;44.624;20.378;2023-07-31T10:57:50;26.49;61.74
69393;SHT31;56582;44.624;20.378;2023-07-31T11:00:20;26.64;58.73
69393;SHT31;56582;44.624;20.378;2023-07-31T11:05:48;26.35;59.77
69393;SHT31;56582;44.624;20.378;2023-07-31T11:08:22;26.50;60.56
69393;SHT31;56582;44.624;20.378;2023-07-31T11:10:51;26.42;60.56
69393;SHT31;56582;44.624;20.378;2023-07-31T11:13:33;26.56;60.93
69393;SHT31;56582;44.624;20.378;2023-07-31T11:15:59;26.65;61.06
69393;SHT31;56582;44.624;20.378;2023-07-31T11:18:26;26.65;60.96
69393;SHT31;56582;44.624;20.378;2023-07-31T11:20:52;26.91;61.94
69393;SHT31;56582;44.624;20.378;2023-07-31T11:23:19;26.91;59.14
69393;SHT31;56582;44.624;20.378;2023-07-31T11:25:45;26.61;59.51
69393;SHT31;56582;44.624;20.378;2023-07-31T11:28:12;26.76;58.75
69393;SHT31;56582;44.624;20.378;2023-07-31T11:30:38;26.97;60.55
69393;SHT31;56582;44.624;20.378;2023-07-31T11:33:05;26.76;58.62
69393;SHT31;56582;44.624;20.378;2023-07-31T11:35:40;26.97;59.78
69393;SHT31;56582;44.624;20.378;2023-07-31T11:38:07;26.84;54.70
69393;SHT31;56582;44.624;20.378;2023-07-31T11:40:44;27.12;56.56
69393;SHT31;56582;44.624;20.378;2023-07-31T11:43:10;27.42;51.25
69393;SHT31;56582;44.624;20.378;2023-07-31T11:45:37;27.53;52.81
69393;SHT31;56582;44.624;20.378;2023-07-31T11:48:03;27.34;52.87
69393;SHT31;56582;44.624;20.378;2023-07-31T11:50:33;27.10;53.15
69393;SHT31;56582;44.624;20.378;2023-07-31T11:53:00;26.95;54.98
69393;SHT31;56582;44.624;20.378;2023-07-31T11:55:28;26.50;54.07
69393;SHT31;56582;44.624;20.378;2023-07-31T11:57:56;26.52;55.02
69393;SHT31;56582;44.624;20.378;2023-07-31T12:00:23;26.44;56.09
69393;SHT31;56582;44.624;20.378;2023-07-31T12:02:48;26.69;56.49
69393;SHT31;56582;44.624;20.378;2023-07-31T12:05:15;27.01;55.30
69393;SHT31;56582;44.624;20.378;2023-07-31T12:07:47;27.25;53.26
69393;SHT31;56582;44.624;20.378;2023-07-31T12:10:27;27.35;53.34
69393;SHT31;56582;44.624;20.378;2023-07-31T12:15:32;27.02;53.08
69393;SHT31;56582;44.624;20.378;2023-07-31T12:17:58;27.32;52.26
69393;SHT31;56582;44.624;20.378;2023-07-31T12:20:24;27.22;50.79
69393;SHT31;56582;44.624;20.378;2023-07-31T12:22:49;27.14;50.24
69393;SHT31;56582;44.624;20.378;2023-07-31T12:25:18;27.07;51.89
69393;SHT31;56582;44.624;20.378;2023-07-31T12:27:45;26.67;52.22
69393;SHT31;56582;44.624;20.378;2023-07-31T12:30:33;26.29;51.77
69393;SHT31;56582;44.624;20.378;2023-07-31T12:33:05;26.35;53.01
69393;SHT31;56582;44.624;20.378;2023-07-31T12:35:40;26.59;52.61
69393;SHT31;56582;44.624;20.378;2023-07-31T12:38:06;26.44;52.47
69393;SHT31;56582;44.624;20.378;2023-07-31T12:40:32;26.72;53.24
69393;SHT31;56582;44.624;20.378;2023-07-31T12:43:00;26.80;53.45
69393;SHT31;56582;44.624;20.378;2023-07-31T12:45:26;27.16;52.65
69393;SHT31;56582;44.624;20.378;2023-07-31T12:47:52;27.20;49.12
69393;SHT31;56582;44.624;20.378;2023-07-31T12:50:17;27.45;50.25
69393;SHT31;56582;44.624;20.378;2023-07-31T12:52:43;27.67;52.30
69393;SHT31;56582;44.624;20.378;2023-07-31T12:55:08;27.86;48.98
69393;SHT31;56582;44.624;20.378;2023-07-31T12:57:36;27.70;50.15
69393;SHT31;56582;44.624;20.378;2023-07-31T13:00:02;27.69;49.40
69393;SHT31;56582;44.624;20.378;2023-07-31T13:02:27;27.69;49.79
69393;SHT31;56582;44.624;20.378;2023-07-31T13:04:53;27.85;50.40
69393;SHT31;56582;44.624;20.378;2023-07-31T13:07:19;28.06;48.95
69393;SHT31;56582;44.624;20.378;2023-07-31T13:09:45;28.18;48.41
69393;SHT31;56582;44.624;20.378;2023-07-31T13:12:10;28.01;48.09
69393;SHT31;56582;44.624;20.378;2023-07-31T13:14:36;27.94;46.60
69393;SHT31;56582;44.624;20.378;2023-07-31T13:17:01;28.08;47.49
69393;SHT31;56582;44.624;20.378;2023-07-31T13:19:27;28.11;49.64
69393;SHT31;56582;44.624;20.378;2023-07-31T13:21:52;28.17;47.89
69393;SHT31;56582;44.624;20.378;2023-07-31T13:24:18;28.25;48.52
69393;SHT31;56582;44.624;20.378;2023-07-31T13:26:43;28.51;49.35
69393;SHT31;56582;44.624;20.378;2023-07-31T13:29:09;28.28;47.99
69393;SHT31;56582;44.624;20.378;2023-07-31T13:31:34;28.28;48.06
69393;SHT31;56582;44.624;20.378;2023-07-31T13:34:00;27.89;46.76
69393;SHT31;56582;44.624;20.378;2023-07-31T13:36:26;27.83;48.57
69393;SHT31;56582;44.624;20.378;2023-07-31T13:38:51;28.07;48.33
69393;SHT31;56582;44.624;20.378;2023-07-31T13:41:17;28.04;47.66
69393;SHT31;56582;44.624;20.378;2023-07-31T13:43:42;27.69;47.85
69393;SHT31;56582;44.624;20.378;2023-07-31T13:46:07;27.48;48.80
69393;SHT31;56582;44.624;20.378;2023-07-31T13:48:36;27.24;48.70
69393;SHT31;56582;44.624;20.378;2023-07-31T13:51:02;27.18;48.26
69393;SHT31;56582;44.624;20.378;2023-07-31T13:53:28;27.15;48.24
69393;SHT31;56582;44.624;20.378;2023-07-31T13:55:53;26.91;49.17
69393;SHT31;56582;44.624;20.378;2023-07-31T13:58:20;26.69;50.29
69393;SHT31;56582;44.624;20.378;2023-07-31T14:00:45;26.67;50.78
69393;SHT31;56582;44.624;20.378;2023-07-31T14:03:11;26.21;51.73
69393;SHT31;56582;44.624;20.378;2023-07-31T14:05:37;26.44;51.89
69393;SHT31;56582;44.624;20.378;2023-07-31T14:08:03;26.63;51.62
69393;SHT31;56582;44.624;20.378;2023-07-31T14:10:28;26.65;50.19
69393;SHT31;56582;44.624;20.378;2023-07-31T14:12:54;26.84;51.13
69393;SHT31;56582;44.624;20.378;2023-07-31T14:15:19;26.73;49.93
69393;SHT31;56582;44.624;20.378;2023-07-31T14:17:45;26.49;48.71
69393;SHT31;56582;44.624;20.378;2023-07-31T14:20:11;26.52;50.62
69393;SHT31;56582;44.624;20.378;2023-07-31T14:22:36;26.56;50.21
69393;SHT31;56582;44.624;20.378;2023-07-31T14:25:03;26.64;50.13
69393;SHT31;56582;44.624;20.378;2023-07-31T14:27:28;26.42;50.66
69393;SHT31;56582;44.624;20.378;2023-07-31T14:29:54;26.47;51.26
69393;SHT31;56582;44.624;20.378;2023-07-31T14:32:21;26.53;49.68
69393;SHT31;56582;44.624;20.378;2023-07-31T14:34:46;26.69;50.11
69393;SHT31;56582;44.624;20.378;2023-07-31T14:37:12;26.88;50.02
69393;SHT31;56582;44.624;20.378;2023-07-31T14:39:37;26.88;50.25
69393;SHT31;56582;44.624;20.378;2023-07-31T14:42:03;27.04;49.53
69393;SHT31;56582;44.624;20.378;2023-07-31T14:44:28;26.88;48.01
69393;SHT31;56582;44.624;20.378;2023-07-31T14:46:54;27.07;50.00
69393;SHT31;56582;44.624;20.378;2023-07-31T14:49:19;27.10;48.43
69393;SHT31;56582;44.624;20.378;2023-07-31T14:51:45;27.15;49.45
69393;SHT31;56582;44.624;20.378;2023-07-31T14:54:10;27.28;51.46
69393;SHT31;56582;44.624;20.378;2023-07-31T14:56:36;27.46;50.94
69393;SHT31;56582;44.624;20.378;2023-07-31T14:59:01;27.53;48.15
69393;SHT31;56582;44.624;20.378;2023-07-31T15:01:27;27.48;48.96
69393;SHT31;56582;44.624;20.378;2023-07-31T15:03:52;27.48;48.90
69393;SHT31;56582;44.624;20.378;2023-07-31T15:06:17;27.15;49.26
69393;SHT31;56582;44.624;20.378;2023-07-31T15:08:43;27.07;50.97
69393;SHT31;56582;44.624;20.378;2023-07-31T15:11:09;27.24;51.44
69393;SHT31;56582;44.624;20.378;2023-07-31T15:13:35;27.25;49.78
69393;SHT31;56582;44.624;20.378;2023-07-31T15:16:01;27.20;48.99
69393;SHT31;56582;44.624;20.378;2023-07-31T15:18:26;27.18;48.54
69393;SHT31;56582;44.624;20.378;2023-07-31T15:20:53;27.18;49.81
69393;SHT31;56582;44.624;20.378;2023-07-31T15:23:18;27.25;48.75
69393;SHT31;56582;44.624;20.378;2023-07-31T15:25:44;27.18;47.54
69393;SHT31;56582;44.624;20.378;2023-07-31T15:28:09;27.07;48.57